Schedule Details

Flight Number: CPX17
Departure: Taiwan Taoyuan International Airport (RCTP) at N/A
Arrival: Ted Stevens Anchorage International Airport (PANC) at N/A
Route: MOLKA M750 MIDAI M750 BUNGU Y81 SYOYU Y809 KAGIS A590 PABBA A590 PASRO A590 HAMND NEELL6


Current Weather Information
RCTP 192230Z 01003KT 4000 BR SCT012 BKN040 20/19 Q1020 NOSIG RMK A3013
PANC 192153Z 36009KT 10SM SCT085 M02/M11 A3014 RMK AO2 SLP207 T10171111